createdAt,value
2023-02-24T00:00:33.971Z,100366.41
2023-02-24T00:03:39.121Z,100359.69
2023-02-24T00:06:45.904Z,100355.50
2023-02-24T00:09:51.041Z,100350.53
2023-02-24T00:12:57.653Z,100337.16
2023-02-24T00:16:03.787Z,100345.50
2023-02-24T00:19:08.993Z,100341.34
2023-02-24T00:22:14.136Z,100337.94
2023-02-24T00:25:19.523Z,100321.91
2023-02-24T00:28:26.085Z,100326.94
2023-02-24T00:31:31.844Z,100316.88
2023-02-24T00:34:38.257Z,100305.22
2023-02-24T00:37:43.359Z,100302.72
2023-02-24T00:40:48.399Z,100295.16
2023-02-24T00:43:55.164Z,100288.44
2023-02-24T00:47:01.166Z,100290.09
2023-02-24T00:50:07.149Z,100283.44
2023-02-24T00:53:14.559Z,100285.94
2023-02-24T00:56:20.708Z,100275.88
2023-02-24T00:59:29.221Z,100277.56
2023-02-24T01:02:34.349Z,100264.19
2023-02-24T01:05:39.458Z,100269.19
2023-02-24T01:08:47.855Z,100251.66
2023-02-24T01:12:10.518Z,100258.28
2023-02-24T01:15:17.997Z,100259.13
2023-02-24T01:18:23.235Z,100257.50
2023-02-24T01:21:28.405Z,100260.00
2023-02-24T01:24:35.996Z,100250.81
2023-02-24T01:27:41.479Z,100242.34
2023-02-24T01:30:48.048Z,100243.25
2023-02-24T01:33:53.660Z,100249.03
2023-02-24T01:36:59.421Z,100241.50
2023-02-24T01:40:11.953Z,100234.81
2023-02-24T01:43:17.167Z,100238.13
2023-02-24T01:46:24.512Z,100238.09
2023-02-24T01:49:34.243Z,100224.75
2023-02-24T01:52:39.565Z,100215.56
2023-02-24T01:55:50.011Z,100214.72
2023-02-24T01:58:55.226Z,100209.75
2023-02-24T02:02:05.548Z,100215.63
2023-02-24T02:05:14.308Z,100205.53
2023-02-24T02:08:20.805Z,100211.41
2023-02-24T02:11:27.743Z,100203.06
2023-02-24T02:14:35.240Z,100196.31
2023-02-24T02:17:48.269Z,100191.31
2023-02-24T02:21:09.621Z,100182.94
2023-02-24T02:24:36.517Z,100177.91
2023-02-24T02:28:13.946Z,100172.03
2023-02-24T02:31:39.440Z,100170.34
2023-02-24T02:34:52.594Z,100165.31
2023-02-24T02:38:08.474Z,100166.16
2023-02-24T02:41:20.206Z,100157.81
2023-02-24T02:44:32.342Z,100160.31
2023-02-24T02:47:41.880Z,100151.91
2023-02-24T02:50:51.870Z,100140.22
2023-02-24T02:54:02.626Z,100136.84
2023-02-24T02:57:12.660Z,100130.19
2023-02-24T03:00:21.624Z,100132.63
2023-02-24T03:03:28.537Z,100137.66
2023-02-24T03:06:37.266Z,100120.94
2023-02-24T03:09:45.754Z,100131.75
2023-02-24T03:12:53.632Z,100134.28
2023-02-24T03:16:02.845Z,100120.91
2023-02-24T03:19:10.464Z,100117.56
2023-02-24T03:22:21.278Z,100128.47
2023-02-24T03:25:30.876Z,100117.59
2023-02-24T03:28:39.207Z,100115.09
2023-02-24T03:31:48.914Z,100101.69
2023-02-24T03:34:58.061Z,100097.44
2023-02-24T03:38:06.470Z,100094.06
2023-02-24T03:41:13.565Z,100094.88
2023-02-24T03:44:19.354Z,100099.09
2023-02-24T03:47:24.822Z,100089.88
2023-02-24T03:50:32.002Z,100074.88
2023-02-24T03:53:49.459Z,100084.06
2023-02-24T03:57:03.552Z,100092.38
2023-02-24T04:00:22.845Z,100086.56
2023-02-24T04:03:36.476Z,100081.59
2023-02-24T04:06:59.723Z,100077.38
2023-02-24T04:10:10.706Z,100079.88
2023-02-24T04:13:25.170Z,100066.47
2023-02-24T04:16:36.568Z,100071.53
2023-02-24T04:19:45.396Z,100060.63
2023-02-24T04:22:53.066Z,100055.59
2023-02-24T04:26:01.006Z,100063.16
2023-02-24T04:29:06.563Z,100061.47
2023-02-24T04:32:15.983Z,100059.78
2023-02-24T04:35:23.080Z,100056.44
2023-02-24T04:38:29.703Z,100053.91
2023-02-24T04:41:36.374Z,100043.91
2023-02-24T04:44:42.933Z,100048.91
2023-02-24T04:47:50.918Z,100043.88
2023-02-24T04:50:57.376Z,100034.66
2023-02-24T04:54:04.758Z,100029.66
2023-02-24T04:57:13.030Z,100032.13
2023-02-24T05:00:23.547Z,100032.16
2023-02-24T05:03:30.177Z,100029.66
2023-02-24T05:06:35.578Z,100022.91
2023-02-24T05:09:41.292Z,100031.31
2023-02-24T05:12:47.794Z,100033.00
2023-02-24T05:15:52.795Z,100022.13
2023-02-24T05:19:11.759Z,100031.31
2023-02-24T05:22:18.032Z,100032.97
2023-02-24T05:25:25.314Z,100020.41
2023-02-24T05:28:32.150Z,100021.25
2023-02-24T05:31:37.993Z,100023.78
2023-02-24T05:34:43.197Z,100009.53
2023-02-24T05:37:48.354Z,100012.06
2023-02-24T05:40:57.668Z,100007.84
2023-02-24T05:44:08.666Z,100005.38
2023-02-24T05:47:14.004Z,100009.56
2023-02-24T05:50:26.412Z,99995.31
2023-02-24T05:53:31.489Z,100005.34
2023-02-24T05:56:38.698Z,99992.81
2023-02-24T05:59:46.329Z,99995.31
2023-02-24T06:02:52.296Z,99996.97
2023-02-24T06:05:59.308Z,99983.59
2023-02-24T06:09:09.139Z,99981.06
2023-02-24T06:12:15.937Z,99999.50
2023-02-24T06:15:22.188Z,99984.44
2023-02-24T06:18:27.876Z,99979.38
2023-02-24T06:21:32.785Z,99965.97
2023-02-24T06:24:38.473Z,99966.81
2023-02-24T06:27:43.560Z,99966.75
2023-02-24T06:30:50.762Z,99966.81
2023-02-24T06:33:56.259Z,99960.91
2023-02-24T06:37:01.461Z,99956.75
2023-02-24T06:40:15.867Z,99944.19
2023-02-24T06:43:20.863Z,99955.91
2023-02-24T06:46:30.216Z,99961.81
2023-02-24T06:49:35.718Z,99963.44
2023-02-24T06:52:41.196Z,99955.06
2023-02-24T06:55:48.947Z,99951.72
2023-02-24T06:58:56.471Z,99950.00
2023-02-24T07:02:03.629Z,99947.44
2023-02-24T07:05:14.710Z,99949.16
2023-02-24T07:08:21.217Z,99948.31
2023-02-24T07:11:27.018Z,99953.38
2023-02-24T07:14:32.457Z,99946.66
2023-02-24T07:17:39.485Z,99944.09
2023-02-24T07:20:47.664Z,99938.22
2023-02-24T07:23:58.891Z,99940.78
2023-02-24T07:27:06.101Z,99934.03
2023-02-24T07:30:13.125Z,99944.13
2023-02-24T07:33:20.062Z,99933.13
2023-02-24T07:36:30.280Z,99930.63
2023-02-24T07:39:37.238Z,99938.22
2023-02-24T07:42:47.955Z,99930.69
2023-02-24T07:46:09.160Z,99934.09
2023-02-24T07:49:19.110Z,99919.88
2023-02-24T07:52:24.729Z,99926.53
2023-02-24T07:55:32.379Z,99921.56
2023-02-24T07:58:39.359Z,99919.78
2023-02-24T08:01:50.752Z,99921.50
2023-02-24T08:04:57.339Z,99917.25
2023-02-24T08:08:03.942Z,99917.25
2023-02-24T08:11:10.608Z,99926.41
2023-02-24T08:14:16.323Z,99931.44
2023-02-24T08:17:24.178Z,99918.81
2023-02-24T08:20:36.391Z,99923.03
2023-02-24T08:23:44.777Z,99910.50
2023-02-24T08:27:04.468Z,99919.63
2023-02-24T08:30:24.066Z,99914.59
2023-02-24T08:33:30.307Z,99899.56
2023-02-24T08:36:36.739Z,99909.56
2023-02-24T08:39:44.078Z,99896.88
2023-02-24T08:42:50.194Z,99886.63
2023-02-24T08:45:59.502Z,99889.25
2023-02-24T08:49:13.648Z,99895.47
2023-02-24T08:52:23.919Z,99889.63
2023-02-24T08:55:33.100Z,99889.66
2023-02-24T08:58:46.566Z,99890.56
2023-02-24T09:02:13.394Z,99884.66
2023-02-24T09:05:18.618Z,99882.97
2023-02-24T09:08:32.958Z,99866.16
2023-02-24T09:11:44.088Z,99870.25
2023-02-24T09:14:50.053Z,99871.84
2023-02-24T09:18:07.309Z,99862.69
2023-02-24T09:21:30.975Z,99859.44
2023-02-24T09:24:38.187Z,99870.25
2023-02-24T09:27:43.493Z,99850.84
2023-02-24T09:30:54.763Z,99865.28
2023-02-24T09:34:04.429Z,99861.00
2023-02-24T09:37:25.087Z,99855.78
2023-02-24T09:40:48.969Z,99853.34
2023-02-24T09:43:59.988Z,99865.19
2023-02-24T09:47:11.095Z,99857.56
2023-02-24T09:50:51.656Z,99854.22
2023-02-24T09:53:53.766Z,99853.47
2023-02-24T09:57:11.031Z,99850.88
2023-02-24T10:00:33.609Z,99850.66
2023-02-24T10:03:43.136Z,99836.50
2023-02-24T10:06:50.807Z,99847.28
2023-02-24T10:10:11.275Z,99852.34
2023-02-24T10:13:30.668Z,99850.59
2023-02-24T10:16:44.488Z,99846.56
2023-02-24T10:19:56.607Z,99832.84
2023-02-24T10:23:09.780Z,99837.09
2023-02-24T10:26:32.001Z,99835.53
2023-02-24T10:29:55.631Z,99833.94
2023-02-24T10:33:03.074Z,99825.72
2023-02-24T10:36:10.931Z,99818.44
2023-02-24T10:39:20.815Z,99831.78
2023-02-24T10:42:27.357Z,99821.63
2023-02-24T10:45:44.519Z,99828.56
2023-02-24T10:49:00.543Z,99821.84
2023-02-24T10:52:09.537Z,99816.75
2023-02-24T10:55:28.725Z,99810.31
2023-02-24T10:58:49.717Z,99808.44
2023-02-24T11:02:01.216Z,99815.94
2023-02-24T11:05:27.339Z,99808.22
2023-02-24T11:08:54.478Z,99793.13
2023-02-24T11:12:19.955Z,99782.03
2023-02-24T11:15:49.684Z,99790.59
2023-02-24T11:18:57.366Z,99796.81
2023-02-24T11:22:04.819Z,99789.28
2023-02-24T11:25:18.310Z,99788.66
2023-02-24T11:28:34.037Z,99784.09
2023-02-24T11:31:54.171Z,99783.31
2023-02-24T11:35:07.115Z,99779.19
2023-02-24T11:38:27.870Z,99774.97
2023-02-24T11:41:35.487Z,99770.41
2023-02-24T11:44:51.838Z,99767.38
2023-02-24T11:48:02.183Z,99769.28
2023-02-24T11:51:13.978Z,99761.06
2023-02-24T11:54:19.056Z,99762.31
2023-02-24T11:57:29.196Z,99761.78
2023-02-24T12:00:38.226Z,99759.16
2023-02-24T12:03:51.279Z,99756.84
2023-02-24T12:07:01.136Z,99747.66
2023-02-24T12:10:17.751Z,99742.34
2023-02-24T12:13:29.919Z,99754.44
2023-02-24T12:16:40.630Z,99746.16
2023-02-24T12:19:54.680Z,99738.38
2023-02-24T12:23:08.387Z,99740.81
2023-02-24T12:26:20.273Z,99739.78
2023-02-24T12:29:43.546Z,99726.28
2023-02-24T12:33:01.853Z,99723.72
2023-02-24T12:36:16.191Z,99725.53
2023-02-24T12:39:24.017Z,99728.03
2023-02-24T12:42:34.903Z,99732.59
2023-02-24T12:45:49.038Z,99728.25
2023-02-24T12:49:12.612Z,99723.16
2023-02-24T12:52:25.995Z,99727.38
2023-02-24T12:55:42.226Z,99724.25
2023-02-24T12:58:49.988Z,99720.06
2023-02-24T13:02:00.637Z,99707.09
2023-02-24T13:05:10.601Z,99712.94
2023-02-24T13:08:24.118Z,99719.03
2023-02-24T13:11:40.409Z,99723.22
2023-02-24T13:14:49.959Z,99721.38
2023-02-24T13:17:58.256Z,99716.56
2023-02-24T13:21:06.703Z,99720.84
2023-02-24T13:24:22.954Z,99720.03
2023-02-24T13:27:36.135Z,99720.75
2023-02-24T13:30:43.302Z,99716.69
2023-02-24T13:33:48.698Z,99722.03
2023-02-24T13:36:53.904Z,99722.66
2023-02-24T13:39:59.680Z,99722.69
2023-02-24T13:43:06.344Z,99718.44
2023-02-24T13:46:19.800Z,99719.34
2023-02-24T13:49:33.101Z,99726.25
2023-02-24T13:52:53.843Z,99723.97
2023-02-24T13:56:26.492Z,99722.31
2023-02-24T14:00:01.191Z,99723.91
2023-02-24T14:03:12.931Z,99713.59
2023-02-24T14:06:26.531Z,99728.88
2023-02-24T14:09:34.940Z,99730.50
2023-02-24T14:12:44.767Z,99734.72
2023-02-24T14:15:51.625Z,99734.00
2023-02-24T14:18:58.211Z,99719.78
2023-02-24T14:22:15.980Z,99728.84
2023-02-24T14:25:21.938Z,99731.31
2023-02-24T14:28:31.262Z,99735.56
2023-02-24T14:31:38.430Z,99728.16
2023-02-24T14:34:48.167Z,99737.31
2023-02-24T14:37:53.326Z,99743.28
2023-02-24T14:40:58.581Z,99745.75
2023-02-24T14:44:13.177Z,99734.94
2023-02-24T14:47:22.591Z,99733.97
2023-02-24T14:50:31.069Z,99752.34
2023-02-24T14:53:38.508Z,99748.31
2023-02-24T14:56:43.968Z,99748.16
2023-02-24T14:59:55.318Z,99728.84
2023-02-24T15:03:06.532Z,99741.66
2023-02-24T15:06:17.032Z,99746.63
2023-02-24T15:09:25.282Z,99749.06
2023-02-24T15:12:32.695Z,99738.19
2023-02-24T15:15:39.476Z,99740.75
2023-02-24T15:18:50.686Z,99740.75
2023-02-24T15:21:56.953Z,99740.81
2023-02-24T15:25:17.707Z,99724.06
2023-02-24T15:28:27.677Z,99739.22
2023-02-24T15:31:35.173Z,99727.50
2023-02-24T15:34:42.102Z,99734.13
2023-02-24T15:37:47.374Z,99733.28
2023-02-24T15:40:54.116Z,99740.00
2023-02-24T15:43:59.199Z,99739.19
2023-02-24T15:47:23.147Z,99743.38
2023-02-24T15:50:31.498Z,99742.66
2023-02-24T15:53:36.864Z,99742.69
2023-02-24T15:56:42.859Z,99732.53
2023-02-24T15:59:51.234Z,99742.72
2023-02-24T16:02:59.447Z,99744.34
2023-02-24T16:06:06.303Z,99740.19
2023-02-24T16:09:14.968Z,99736.81
2023-02-24T16:12:22.012Z,99739.31
2023-02-24T16:15:29.717Z,99741.06
2023-02-24T16:18:35.280Z,99735.16
2023-02-24T16:21:41.993Z,99739.41
2023-02-24T16:24:47.152Z,99745.25
2023-02-24T16:27:57.447Z,99742.72
2023-02-24T16:31:02.872Z,99746.03
2023-02-24T16:34:08.775Z,99736.00
2023-02-24T16:37:19.659Z,99741.88
2023-02-24T16:40:28.012Z,99751.94
2023-02-24T16:43:35.243Z,99746.91
2023-02-24T16:46:48.684Z,99740.31
2023-02-24T16:49:57.929Z,99757.91
2023-02-24T16:53:06.737Z,99749.53
2023-02-24T16:56:15.323Z,99757.03
2023-02-24T16:59:20.430Z,99751.16
2023-02-24T17:02:27.418Z,99755.47
2023-02-24T17:05:32.662Z,99757.94
2023-02-24T17:08:39.640Z,99756.19
2023-02-24T17:11:49.985Z,99754.63
2023-02-24T17:14:55.397Z,99756.25
2023-02-24T17:18:00.594Z,99758.78
2023-02-24T17:21:06.532Z,99752.88
2023-02-24T17:24:18.182Z,99757.88
2023-02-24T17:27:23.370Z,99755.41
2023-02-24T17:30:30.800Z,99760.44
2023-02-24T17:33:36.225Z,99759.66
2023-02-24T17:36:41.290Z,99760.50
2023-02-24T17:39:49.603Z,99759.66
2023-02-24T17:42:55.681Z,99759.69
2023-02-24T17:46:06.953Z,99763.81
2023-02-24T17:49:12.672Z,99762.22
2023-02-24T17:52:17.845Z,99763.78
2023-02-24T17:55:24.924Z,99760.50
2023-02-24T17:58:29.784Z,99772.19
2023-02-24T18:01:35.165Z,99767.22
2023-02-24T18:04:49.474Z,99776.44
2023-02-24T18:07:55.401Z,99778.94
2023-02-24T18:11:02.630Z,99775.69
2023-02-24T18:14:08.117Z,99775.69
2023-02-24T18:17:15.434Z,99768.09
2023-02-24T18:20:21.233Z,99779.88
2023-02-24T18:23:26.664Z,99777.38
2023-02-24T18:26:37.016Z,99775.69
2023-02-24T18:29:44.012Z,99797.56
2023-02-24T18:32:51.980Z,99784.19
2023-02-24T18:36:00.694Z,99788.41
2023-02-24T18:39:06.342Z,99785.03
2023-02-24T18:42:14.391Z,99785.09
2023-02-24T18:45:20.235Z,99795.13
2023-02-24T18:48:27.554Z,99786.78
2023-02-24T18:51:33.147Z,99801.84
2023-02-24T18:54:38.715Z,99795.09
2023-02-24T18:57:45.530Z,99806.88
2023-02-24T19:00:50.686Z,99801.84
2023-02-24T19:03:56.407Z,99799.34
2023-02-24T19:07:04.361Z,99810.25
2023-02-24T19:10:11.062Z,99810.22
2023-02-24T19:13:17.754Z,99818.63
2023-02-24T19:16:24.803Z,99818.59
2023-02-24T19:19:30.938Z,99816.97
2023-02-24T19:22:36.143Z,99822.00
2023-02-24T19:25:41.433Z,99817.81
2023-02-24T19:28:48.727Z,99822.81
2023-02-24T19:31:54.955Z,99831.19
2023-02-24T19:35:00.352Z,99834.53
2023-02-24T19:38:05.494Z,99827.84
2023-02-24T19:41:11.184Z,99822.81
2023-02-24T19:44:18.089Z,99832.06
2023-02-24T19:47:23.475Z,99827.06
2023-02-24T19:50:28.878Z,99834.63
2023-02-24T19:53:33.787Z,99831.25
2023-02-24T19:56:39.402Z,99823.63
2023-02-24T19:59:46.409Z,99827.00
2023-02-24T20:02:53.329Z,99829.53
2023-02-24T20:05:58.733Z,99827.00
2023-02-24T20:09:06.146Z,99828.72
2023-02-24T20:12:13.843Z,99831.25
2023-02-24T20:15:20.262Z,99823.69
2023-02-24T20:18:25.446Z,99827.88
2023-02-24T20:21:30.862Z,99827.88
2023-02-24T20:24:36.858Z,99829.56
2023-02-24T20:27:42.103Z,99834.59
2023-02-24T20:30:51.245Z,99840.44
2023-02-24T20:33:57.911Z,99838.78
2023-02-24T20:37:03.380Z,99842.16
2023-02-24T20:40:10.624Z,99846.34
2023-02-24T20:43:16.410Z,99843.81
2023-02-24T20:46:26.285Z,99851.31
2023-02-24T20:49:34.292Z,99859.72
2023-02-24T20:52:40.125Z,99859.75
2023-02-24T20:55:45.040Z,99859.75
2023-02-24T20:58:52.541Z,99854.72
2023-02-24T21:01:59.756Z,99854.69
2023-02-24T21:05:05.083Z,99868.94
2023-02-24T21:08:11.726Z,99867.25
2023-02-24T21:11:17.105Z,99866.44
2023-02-24T21:14:23.241Z,99873.94
2023-02-24T21:17:30.754Z,99876.47
2023-02-24T21:20:36.101Z,99863.94
2023-02-24T21:23:42.358Z,99871.44
2023-02-24T21:26:47.774Z,99877.28
2023-02-24T21:29:52.924Z,99873.13
2023-02-24T21:32:59.532Z,99873.09
2023-02-24T21:36:09.629Z,99874.81
2023-02-24T21:39:15.293Z,99883.97
2023-02-24T21:42:22.236Z,99884.81
2023-02-24T21:45:27.762Z,99889.81
2023-02-24T21:48:34.676Z,99878.13
2023-02-24T21:51:40.594Z,99875.63
2023-02-24T21:54:46.532Z,99874.78
2023-02-24T21:57:51.612Z,99872.28
2023-02-24T22:00:57.172Z,99884.81
2023-02-24T22:04:04.916Z,99871.44
2023-02-24T22:07:10.596Z,99875.63
2023-02-24T22:10:16.817Z,99868.09
2023-02-24T22:13:21.998Z,99868.09
2023-02-24T22:16:27.783Z,99868.09
2023-02-24T22:19:34.192Z,99875.59
2023-02-24T22:22:43.523Z,99870.59
2023-02-24T22:25:48.338Z,99872.28
2023-02-24T22:28:54.301Z,99870.59
2023-02-24T22:32:00.300Z,99865.56
2023-02-24T22:35:07.909Z,99873.06
2023-02-24T22:38:14.925Z,99878.09
2023-02-24T22:41:22.055Z,99878.94
2023-02-24T22:44:27.251Z,99878.13
2023-02-24T22:47:32.404Z,99876.44
2023-02-24T22:50:39.350Z,99885.66
2023-02-24T22:53:47.568Z,99885.59
2023-02-24T22:56:54.291Z,99878.94
2023-02-24T23:00:00.269Z,99882.31
2023-02-24T23:03:05.404Z,99891.50
2023-02-24T23:06:14.073Z,99888.94
2023-02-24T23:09:20.183Z,99886.44
2023-02-24T23:12:25.506Z,99890.63
2023-02-24T23:15:31.074Z,99898.16
2023-02-24T23:18:37.331Z,99892.25
2023-02-24T23:21:46.317Z,99892.25
2023-02-24T23:24:51.420Z,99895.66
2023-02-24T23:27:56.622Z,99899.78
2023-02-24T23:31:03.037Z,99903.19
2023-02-24T23:34:08.052Z,99906.50
2023-02-24T23:37:14.502Z,99899.78
2023-02-24T23:40:26.143Z,99887.28
2023-02-24T23:43:31.932Z,99886.44
2023-02-24T23:46:41.750Z,99896.47
2023-02-24T23:49:48.659Z,99896.44
2023-02-24T23:52:55.449Z,99894.78
2023-02-24T23:56:00.779Z,99895.63
2023-02-24T23:59:05.971Z,99893.09
